Terminal Aerodrome Forecast
Issued by NWS Newport/Morehead City, NC

Home | Current Version | Previous Version | Text Only | Print | Product List | Glossary On
Versions: 1 2 3 4 5 6 7 8 9 10 11 12 13
000
FTUS42 KMHX 241137
TAFEWN
TAF
KEWN 241137Z 2412/2512 21008KT P6SM VCSH BKN020
     FM241400 22010KT P6SM VCSH BKN025
     FM241800 21010G18KT P6SM VCTS SCT050CB BKN100
     FM250000 21006KT P6SM VCSH BKN250
     FM250900 VRB03KT 6SM BR FEW008=

USA.gov is the U.S. government's official web portal to all federal, state and local government web resources and services.